Time;durP1;ratioP1;P1;durP2;ratioP2;P2;SDS_P1;SDS_P2;PMS_P1;PMS_P2;Temp;Humidity;BMP_temperature;BMP_pressure;BME280_temperature;BME280_humidity;BME280_pressure;Samples;Min_cycle;Max_cycle;Signal;HPM_P1;HPM_P2
2023/06/15 00:02:23;;;;;;;6.97;4.90;;;20.50;95.70;;;;;;5032799;28;20026;-76
2023/06/15 00:04:49;;;;;;;9.00;4.82;;;20.50;95.70;;;;;;5032739;28;20025;-75
2023/06/15 00:07:15;;;;;;;12.90;5.18;;;20.50;95.60;;;;;;5032535;28;20033;-75
2023/06/15 00:09:41;;;;;;;7.63;5.22;;;20.40;95.50;;;;;;5032615;28;20083;-75
2023/06/15 00:12:09;;;;;;;13.45;4.97;;;20.50;95.50;;;;;;5032648;28;20034;-76
2023/06/15 00:14:35;;;;;;;7.47;5.38;;;20.40;95.50;;;;;;5032910;28;20032;-75
2023/06/15 00:17:01;;;;;;;9.95;5.20;;;20.40;95.40;;;;;;5032460;28;20083;-76
2023/06/15 00:19:28;;;;;;;9.05;4.85;;;20.40;95.40;;;;;;5031873;28;20479;-75
2023/06/15 00:21:54;;;;;;;7.15;4.97;;;20.40;95.30;;;;;;5032715;28;20056;-75
2023/06/15 00:24:20;;;;;;;11.73;5.20;;;20.40;95.30;;;;;;5032575;28;20072;-75
2023/06/15 00:26:45;;;;;;;7.10;5.05;;;20.30;95.20;;;;;;5015007;28;20441;-75
2023/06/15 00:29:11;;;;;;;12.10;4.47;;;20.30;95.20;;;;;;5032290;28;20033;-76
2023/06/15 00:31:37;;;;;;;9.00;5.20;;;20.30;95.50;;;;;;5032718;28;20028;-75
2023/06/15 00:34:03;;;;;;;11.75;4.60;;;20.30;95.20;;;;;;5032445;28;20033;-75
2023/06/15 00:36:29;;;;;;;12.82;5.22;;;20.30;95.20;;;;;;5032289;28;20048;-76
2023/06/15 00:38:54;;;;;;;5.57;4.57;;;20.30;95.20;;;;;;5032497;28;20051;-75
2023/06/15 00:41:21;;;;;;;8.82;4.25;;;20.20;95.20;;;;;;5032274;28;20566;-75
2023/06/15 00:43:47;;;;;;;12.60;4.68;;;20.20;95.30;;;;;;5032244;28;20017;-77
2023/06/15 00:46:13;;;;;;;7.15;4.43;;;20.20;95.20;;;;;;5032182;28;20025;-75
2023/06/15 00:48:39;;;;;;;9.60;4.40;;;20.20;95.10;;;;;;5032136;28;20044;-75
2023/06/15 00:51:07;;;;;;;6.57;4.90;;;20.10;95.10;;;;;;5032395;28;20121;-76
2023/06/15 00:53:32;;;;;;;8.43;5.05;;;20.20;95.10;;;;;;5031966;28;20022;-75
2023/06/15 00:55:59;;;;;;;7.10;4.50;;;20.10;95.10;;;;;;5032321;28;20543;-74
2023/06/15 00:58:25;;;;;;;6.05;4.40;;;20.10;95.10;;;;;;5030405;28;20026;-76
2023/06/15 01:00:53;;;;;;;7.70;4.40;;;20.10;95.00;;;;;;5029128;28;20189;-76
2023/06/15 01:03:20;;;;;;;6.50;4.13;;;20.10;94.90;;;;;;5029081;28;20036;-75
2023/06/15 01:05:52;;;;;;;8.30;4.60;;;20.10;94.80;;;;;;5031541;28;20026;-75
2023/06/15 01:08:20;;;;;;;11.40;4.68;;;20.10;94.80;;;;;;5032166;28;20104;-75
2023/06/15 01:10:47;;;;;;;7.25;4.53;;;20.10;94.80;;;;;;5032147;28;20036;-75
2023/06/15 01:13:13;;;;;;;8.18;4.45;;;20.10;94.80;;;;;;5031991;28;20021;-75
2023/06/15 01:15:40;;;;;;;13.27;4.30;;;20.00;94.80;;;;;;5031847;28;20048;-74
2023/06/15 01:18:08;;;;;;;7.60;4.28;;;20.10;94.90;;;;;;5031927;28;20022;-76
2023/06/15 01:20:39;;;;;;;5.50;4.35;;;20.00;94.90;;;;;;5031855;28;20026;-75
2023/06/15 01:23:31;;;;;;;8.20;4.80;;;20.00;94.80;;;;;;5031892;28;20029;-76
2023/06/15 01:26:05;;;;;;;6.73;4.60;;;20.00;94.90;;;;;;5032177;28;20029;-75
2023/06/15 01:28:33;;;;;;;6.72;4.53;;;20.00;94.90;;;;;;5031593;28;20033;-75
2023/06/15 01:31:00;;;;;;;6.65;4.47;;;20.00;95.00;;;;;;5035390;28;20026;-75
2023/06/15 01:33:27;;;;;;;12.05;4.88;;;19.90;94.70;;;;;;5035625;28;20505;-75
2023/06/15 01:35:52;;;;;;;6.60;4.45;;;19.90;94.80;;;;;;5034989;28;20049;-75
2023/06/15 01:38:22;;;;;;;8.80;4.13;;;19.90;95.00;;;;;;5035552;28;20017;-76
2023/06/15 01:40:50;;;;;;;6.32;4.43;;;19.90;95.00;;;;;;5035303;28;20328;-75
2023/06/15 01:43:22;;;;;;;6.47;4.43;;;19.90;95.10;;;;;;5035332;28;20652;-75
2023/06/15 01:45:49;;;;;;;5.97;4.35;;;19.90;95.10;;;;;;5035293;28;20052;-75
2023/06/15 01:48:16;;;;;;;8.30;4.75;;;19.90;95.10;;;;;;5035245;28;20042;-75
2023/06/15 01:50:42;;;;;;;8.10;4.82;;;19.90;95.20;;;;;;5035019;28;20060;-74
2023/06/15 01:53:08;;;;;;;9.95;5.03;;;19.90;95.30;;;;;;5035208;28;20022;-75
2023/06/15 01:55:34;;;;;;;13.98;4.85;;;19.90;95.40;;;;;;5034952;28;20109;-75
2023/06/15 01:58:00;;;;;;;12.07;4.88;;;19.80;95.30;;;;;;5035184;28;20029;-74
2023/06/15 02:00:26;;;;;;;6.43;4.07;;;19.80;95.40;;;;;;5034927;28;20030;-74
2023/06/15 02:02:52;;;;;;;8.88;4.60;;;19.80;95.50;;;;;;5035055;28;20837;-75
2023/06/15 02:05:18;;;;;;;10.73;4.60;;;19.80;95.50;;;;;;5035022;28;20041;-75
2023/06/15 02:07:44;;;;;;;5.95;4.55;;;19.80;95.60;;;;;;5034926;28;20033;-75
2023/06/15 02:10:10;;;;;;;10.20;4.72;;;19.70;95.70;;;;;;5034815;28;20108;-74
2023/06/15 02:12:36;;;;;;;8.38;5.05;;;19.70;95.70;;;;;;5034689;28;20084;-74
2023/06/15 02:15:03;;;;;;;8.95;4.95;;;19.70;95.80;;;;;;5034980;28;20108;-75
2023/06/15 02:17:39;;;;;;;8.93;5.07;;;19.70;95.90;;;;;;5034863;28;20033;-75
2023/06/15 02:20:09;;;;;;;8.32;5.28;;;19.70;95.90;;;;;;5034738;28;20021;-75
2023/06/15 02:22:36;;;;;;;6.80;4.95;;;19.70;96.00;;;;;;5034139;28;20036;-74
2023/06/15 02:25:02;;;;;;;8.93;4.78;;;19.70;95.90;;;;;;5034312;28;20099;-75
2023/06/15 02:27:27;;;;;;;5.55;4.40;;;19.60;95.90;;;;;;5034271;28;20487;-75
2023/06/15 02:29:53;;;;;;;16.80;5.57;;;19.60;95.90;;;;;;5016764;28;20030;-75
2023/06/15 02:32:36;;;;;;;8.63;5.00;;;19.60;95.90;;;;;;5034643;28;20029;-75
2023/06/15 02:35:10;;;;;;;6.55;5.13;;;19.60;95.80;;;;;;5033573;28;20049;-76
2023/06/15 02:37:36;;;;;;;9.77;5.00;;;19.60;95.90;;;;;;5034525;28;20132;-75
2023/06/15 02:40:04;;;;;;;6.43;4.80;;;19.50;95.80;;;;;;5034011;28;20025;-74
2023/06/15 02:42:29;;;;;;;9.25;5.05;;;19.50;95.90;;;;;;5034106;28;20079;-75
2023/06/15 02:44:55;;;;;;;9.13;5.20;;;19.50;96.00;;;;;;5033829;28;20029;-75
2023/06/15 02:47:21;;;;;;;9.68;4.90;;;19.50;96.00;;;;;;5034062;28;20377;-75
2023/06/15 02:49:47;;;;;;;6.38;4.82;;;19.50;96.00;;;;;;5034122;28;20041;-74
2023/06/15 02:52:13;;;;;;;9.95;5.00;;;19.50;96.00;;;;;;5033813;28;20378;-74
2023/06/15 02:54:39;;;;;;;10.07;4.95;;;19.50;96.00;;;;;;5015981;28;20022;-74
2023/06/15 02:57:09;;;;;;;6.85;4.85;;;19.40;96.00;;;;;;5034022;28;20095;-75
2023/06/15 02:59:40;;;;;;;7.25;4.63;;;19.40;95.90;;;;;;5034082;28;20522;-75
2023/06/15 03:02:07;;;;;;;7.85;5.03;;;19.40;96.00;;;;;;5033847;28;20120;-74
2023/06/15 03:04:44;;;;;;;9.30;4.43;;;19.40;96.00;;;;;;5033656;28;20527;-74
2023/06/15 03:07:17;;;;;;;10.70;4.57;;;19.40;96.00;;;;;;5015921;28;20083;-74
2023/06/15 03:09:46;;;;;;;8.82;4.68;;;19.40;96.10;;;;;;5033839;28;20056;-75
2023/06/15 03:12:12;;;;;;;5.90;4.05;;;19.40;96.00;;;;;;5033774;28;20038;-75
2023/06/15 03:14:38;;;;;;;7.70;4.28;;;19.30;95.90;;;;;;5033674;28;20086;-75
2023/06/15 03:17:09;;;;;;;10.40;5.18;;;19.30;95.90;;;;;;5033733;28;20025;-75
2023/06/15 03:19:36;;;;;;;7.93;4.63;;;19.30;95.90;;;;;;5033595;28;20030;-76
2023/06/15 03:22:02;;;;;;;9.02;4.75;;;19.30;95.90;;;;;;5033900;28;20061;-74
2023/06/15 03:24:30;;;;;;;7.28;4.63;;;19.30;95.90;;;;;;5015704;28;20470;-75
2023/06/15 03:27:01;;;;;;;7.15;5.00;;;19.30;96.00;;;;;;5033568;28;20389;-75
2023/06/15 03:29:31;;;;;;;8.55;4.35;;;19.30;96.00;;;;;;5033229;28;20076;-75
2023/06/15 03:31:57;;;;;;;8.57;4.63;;;19.30;96.10;;;;;;5033358;28;20045;-75
2023/06/15 03:34:25;;;;;;;10.07;4.68;;;19.20;96.20;;;;;;5033408;28;20032;-75
2023/06/15 03:36:51;;;;;;;8.68;4.90;;;19.20;96.10;;;;;;5033249;28;20116;-75
2023/06/15 03:39:20;;;;;;;8.38;4.65;;;19.30;96.10;;;;;;4999844;28;20043;-75
2023/06/15 03:41:46;;;;;;;9.88;4.95;;;19.20;96.10;;;;;;4933364;29;20028;-75
2023/06/15 03:44:11;;;;;;;7.22;4.57;;;19.20;96.00;;;;;;4933142;29;20028;-75
2023/06/15 03:46:37;;;;;;;7.88;4.90;;;19.20;96.00;;;;;;4933110;29;20026;-75
2023/06/15 03:49:03;;;;;;;8.52;4.95;;;19.10;95.90;;;;;;4932699;29;20062;-76
2023/06/15 03:51:29;;;;;;;6.18;4.13;;;19.10;95.90;;;;;;4933330;28;20031;-75
2023/06/15 03:53:55;;;;;;;11.45;4.32;;;19.10;95.90;;;;;;4932885;29;20424;-75
2023/06/15 03:56:20;;;;;;;7.78;4.45;;;19.10;95.80;;;;;;4932565;29;20063;-75
2023/06/15 03:58:46;;;;;;;9.32;3.90;;;19.10;95.90;;;;;;4933038;29;20046;-75
2023/06/15 04:01:14;;;;;;;8.65;4.32;;;19.10;95.90;;;;;;4932841;29;20032;-75
2023/06/15 04:03:40;;;;;;;8.80;4.50;;;19.10;96.00;;;;;;4933159;28;20035;-75
2023/06/15 04:06:06;;;;;;;8.80;4.47;;;19.10;95.90;;;;;;4998265;28;20126;-75
2023/06/15 04:08:33;;;;;;;11.48;4.40;;;19.10;95.90;;;;;;4932697;29;20094;-75
2023/06/15 04:10:59;;;;;;;7.35;4.60;;;19.10;95.80;;;;;;4932698;29;20031;-75
2023/06/15 04:13:26;;;;;;;7.95;4.15;;;19.10;95.80;;;;;;4933133;28;20062;-74
2023/06/15 04:15:54;;;;;;;7.70;4.40;;;19.20;95.80;;;;;;4932891;28;20070;-75
2023/06/15 04:18:21;;;;;;;9.32;4.07;;;19.20;96.00;;;;;;4932554;29;20026;-75
2023/06/15 04:20:46;;;;;;;7.18;3.92;;;19.20;96.00;;;;;;4932890;28;20097;-75
2023/06/15 04:23:12;;;;;;;7.32;4.00;;;19.20;96.10;;;;;;4932744;29;20024;-75
2023/06/15 04:25:40;;;;;;;8.90;4.22;;;19.30;96.20;;;;;;4932688;29;20031;-75
2023/06/15 04:28:10;;;;;;;6.10;4.72;;;19.30;96.10;;;;;;4932452;29;20032;-75
2023/06/15 04:30:37;;;;;;;5.25;4.20;;;19.30;96.10;;;;;;4932346;29;20027;-75
2023/06/15 04:33:04;;;;;;;7.28;4.15;;;19.40;96.20;;;;;;4932675;29;20499;-75
2023/06/15 04:35:34;;;;;;;6.32;4.40;;;19.40;96.20;;;;;;4932460;29;20599;-75
2023/06/15 04:38:02;;;;;;;10.02;4.00;;;19.40;96.00;;;;;;4932379;29;20028;-74
2023/06/15 04:40:28;;;;;;;8.43;4.93;;;19.40;96.00;;;;;;4932369;29;20028;-75
2023/06/15 04:42:54;;;;;;;8.50;4.60;;;19.40;95.80;;;;;;4931980;29;20027;-76
2023/06/15 04:45:20;;;;;;;10.25;4.80;;;19.50;95.90;;;;;;4932081;29;20094;-74
2023/06/15 04:47:47;;;;;;;8.40;4.68;;;19.40;95.90;;;;;;4932342;29;20032;-77
2023/06/15 04:50:13;;;;;;;12.93;5.05;;;19.50;96.10;;;;;;4932179;29;20116;-74
2023/06/15 04:52:42;;;;;;;7.65;4.45;;;19.50;96.30;;;;;;4932319;28;20078;-75
2023/06/15 04:55:08;;;;;;;8.00;4.95;;;19.50;96.40;;;;;;4932356;28;20476;-75
2023/06/15 04:57:34;;;;;;;8.50;4.65;;;19.50;96.60;;;;;;4931663;29;20032;-74
2023/06/15 05:00:00;;;;;;;10.90;4.60;;;19.50;96.60;;;;;;4932240;29;20026;-75
2023/06/15 05:02:26;;;;;;;7.35;4.90;;;19.50;96.60;;;;;;4931783;29;20430;-75
2023/06/15 05:04:51;;;;;;;8.93;4.75;;;19.50;96.60;;;;;;4934047;29;20364;-75
2023/06/15 05:07:17;;;;;;;8.40;4.45;;;19.60;96.60;;;;;;4935479;28;20055;-75
2023/06/15 05:09:43;;;;;;;8.98;4.88;;;19.60;96.60;;;;;;4935341;29;20418;-75
2023/06/15 05:12:09;;;;;;;6.15;4.68;;;19.60;96.60;;;;;;4935453;29;20020;-75
2023/06/15 05:14:34;;;;;;;8.75;4.85;;;19.60;96.60;;;;;;5001425;28;20036;-75
2023/06/15 05:17:03;;;;;;;14.80;4.47;;;19.60;96.60;;;;;;4935367;29;20024;-74
2023/06/15 05:19:31;;;;;;;9.52;4.72;;;19.70;96.70;;;;;;4935112;29;20047;-75
2023/06/15 05:22:01;;;;;;;8.70;4.65;;;19.70;96.60;;;;;;4935013;29;20032;-77
2023/06/15 05:24:27;;;;;;;7.28;5.50;;;19.80;96.50;;;;;;4935166;29;20027;-75
2023/06/15 05:26:53;;;;;;;6.38;4.40;;;19.80;96.30;;;;;;5001207;28;20028;-75
2023/06/15 05:29:20;;;;;;;12.48;4.90;;;19.80;96.20;;;;;;4935008;28;20046;-75
2023/06/15 05:31:46;;;;;;;6.03;4.25;;;19.90;96.20;;;;;;4935059;28;20020;-75
2023/06/15 05:34:12;;;;;;;9.35;4.53;;;19.90;96.00;;;;;;4935006;28;20059;-75
2023/06/15 05:36:37;;;;;;;8.02;4.45;;;19.90;96.00;;;;;;4934661;28;20075;-75
2023/06/15 05:39:03;;;;;;;9.20;4.90;;;19.90;96.00;;;;;;4934972;29;20024;-75
2023/06/15 05:41:29;;;;;;;13.90;5.43;;;20.00;96.00;;;;;;5000972;28;20028;-74
2023/06/15 05:43:55;;;;;;;8.57;4.03;;;20.00;95.90;;;;;;4935098;28;20028;-76
2023/06/15 05:46:21;;;;;;;5.70;4.47;;;20.00;95.60;;;;;;4934886;29;20103;-75
2023/06/15 05:48:47;;;;;;;6.60;4.20;;;20.10;95.50;;;;;;4934458;28;20119;-74
2023/06/15 05:51:12;;;;;;;5.78;4.20;;;20.10;95.30;;;;;;4999809;28;20032;-74
2023/06/15 05:53:38;;;;;;;5.60;4.78;;;20.10;95.00;;;;;;4934669;29;20040;-74
2023/06/15 05:56:04;;;;;;;13.63;4.50;;;20.10;94.90;;;;;;4934843;29;20028;-75
2023/06/15 05:58:30;;;;;;;10.35;5.35;;;20.10;95.00;;;;;;4934938;29;20031;-74
2023/06/15 06:00:55;;;;;;;9.77;4.18;;;20.10;94.60;;;;;;4934759;29;20028;-73
2023/06/15 06:03:21;;;;;;;6.82;4.88;;;20.10;94.50;;;;;;4934563;29;20024;-74
2023/06/15 06:05:47;;;;;;;7.53;4.28;;;20.20;94.30;;;;;;5000843;28;20027;-74
2023/06/15 06:08:12;;;;;;;5.80;4.43;;;20.30;94.20;;;;;;4999285;28;20483;-74
2023/06/15 06:10:38;;;;;;;6.68;4.35;;;20.30;93.80;;;;;;4917099;28;20039;-74
2023/06/15 06:13:04;;;;;;;10.25;4.35;;;20.30;93.50;;;;;;4916097;28;20043;-74
2023/06/15 06:15:30;;;;;;;4.20;3.60;;;20.30;93.10;;;;;;4981635;28;20028;-73
2023/06/15 06:17:55;;;;;;;5.18;4.25;;;20.40;92.70;;;;;;4934657;28;20028;-74
2023/06/15 06:20:21;;;;;;;6.13;4.03;;;20.40;92.50;;;;;;4934805;28;20024;-74
2023/06/15 06:22:47;;;;;;;8.13;4.15;;;20.50;92.10;;;;;;4988218;28;20033;-74
2023/06/15 06:25:12;;;;;;;8.95;4.13;;;20.50;91.30;;;;;;5034206;28;20378;-74
2023/06/15 06:27:38;;;;;;;6.35;4.25;;;20.60;91.20;;;;;;5034083;28;20025;-74
2023/06/15 06:30:04;;;;;;;5.80;3.70;;;20.60;91.20;;;;;;5033867;28;20034;-75
2023/06/15 06:32:30;;;;;;;4.95;4.22;;;20.60;91.30;;;;;;5034364;28;20094;-74
2023/06/15 06:34:56;;;;;;;9.55;3.70;;;20.70;91.50;;;;;;5034242;28;20445;-74
2023/06/15 06:37:22;;;;;;;4.80;3.78;;;20.70;91.30;;;;;;5033811;28;20076;-71
2023/06/15 06:39:48;;;;;;;6.63;3.40;;;20.80;91.10;;;;;;5033584;28;20076;-74
2023/06/15 06:42:13;;;;;;;8.00;3.90;;;20.80;90.40;;;;;;5033972;28;20021;-72
2023/06/15 06:44:40;;;;;;;6.55;4.75;;;20.90;90.00;;;;;;5033281;28;20025;-72
2023/06/15 06:47:05;;;;;;;6.75;4.03;;;20.90;89.80;;;;;;5015973;28;20033;-72
2023/06/15 06:49:31;;;;;;;6.43;3.95;;;20.90;88.70;;;;;;5016137;28;20037;-71
2023/06/15 06:51:57;;;;;;;6.97;4.32;;;21.00;88.00;;;;;;5033374;28;20026;-72
2023/06/15 06:54:22;;;;;;;5.32;4.03;;;21.00;88.10;;;;;;5033154;28;20109;-71
2023/06/15 06:56:48;;;;;;;5.80;4.38;;;21.00;88.00;;;;;;5032324;28;20025;-72
2023/06/15 06:59:14;;;;;;;3.97;3.60;;;21.00;87.80;;;;;;5032972;28;20026;-72
2023/06/15 07:01:39;;;;;;;6.20;3.90;;;21.00;87.90;;;;;;5033107;28;20157;-71
2023/06/15 07:04:05;;;;;;;6.18;3.75;;;21.10;87.30;;;;;;5031394;28;20030;-71
2023/06/15 07:06:31;;;;;;;8.55;4.68;;;21.10;86.60;;;;;;5032622;28;20061;-71
2023/06/15 07:08:57;;;;;;;7.93;4.35;;;21.20;85.10;;;;;;5013463;28;20467;-72
2023/06/15 07:11:22;;;;;;;7.75;4.35;;;21.30;85.10;;;;;;5031848;28;20021;-72
2023/06/15 07:13:48;;;;;;;4.82;3.90;;;21.30;86.10;;;;;;5032316;28;20030;-71
2023/06/15 07:16:13;;;;;;;4.90;4.05;;;21.30;86.30;;;;;;5032547;28;20025;-71
2023/06/15 07:18:39;;;;;;;4.50;3.97;;;21.30;85.60;;;;;;5031942;28;20026;-73
2023/06/15 07:21:05;;;;;;;6.68;4.22;;;21.40;84.70;;;;;;5031746;28;20703;-72
2023/06/15 07:23:30;;;;;;;4.90;3.65;;;21.50;85.00;;;;;;5032199;28;20041;-72
2023/06/15 07:25:56;;;;;;;9.88;4.10;;;21.50;85.10;;;;;;5031996;28;20049;-72
2023/06/15 07:28:22;;;;;;;8.63;4.03;;;21.60;84.50;;;;;;5031036;28;20037;-74
2023/06/15 07:30:49;;;;;;;4.13;3.72;;;21.60;83.20;;;;;;5032758;28;20074;-72
2023/06/15 07:33:15;;;;;;;5.32;3.72;;;21.70;83.20;;;;;;5032895;28;20390;-72
2023/06/15 07:35:41;;;;;;;7.40;4.05;;;21.70;83.20;;;;;;4973263;22;20113;-72
2023/06/15 07:38:07;;;;;;;7.32;4.50;;;21.80;82.80;;;;;;4932818;28;20035;-72
2023/06/15 07:40:33;;;;;;;5.40;3.53;;;21.80;83.00;;;;;;4933224;28;20034;-72
2023/06/15 07:42:58;;;;;;;4.63;3.75;;;21.90;82.40;;;;;;4999143;28;20034;-72
2023/06/15 07:45:24;;;;;;;9.30;4.40;;;22.00;81.80;;;;;;4933045;28;20024;-73
2023/06/15 07:47:49;;;;;;;8.25;3.90;;;22.00;81.60;;;;;;4933301;28;20483;-71
2023/06/15 07:50:15;;;;;;;7.35;4.18;;;22.10;81.80;;;;;;4933374;28;20043;-72
2023/06/15 07:52:41;;;;;;;6.03;3.60;;;22.10;82.40;;;;;;4933162;28;20039;-72
2023/06/15 07:55:07;;;;;;;6.30;3.90;;;22.10;82.40;;;;;;4933099;28;20114;-72
2023/06/15 07:57:34;;;;;;;7.38;3.95;;;22.10;81.80;;;;;;4933042;28;20028;-73
2023/06/15 08:00:04;;;;;;;7.40;3.60;;;22.20;81.60;;;;;;4933101;28;20026;-72
2023/06/15 08:02:30;;;;;;;6.95;3.55;;;22.20;80.90;;;;;;4933141;28;20023;-72
2023/06/15 08:04:55;;;;;;;4.85;3.97;;;22.30;80.20;;;;;;4933368;28;20042;-72
2023/06/15 08:07:21;;;;;;;4.85;3.63;;;22.30;80.30;;;;;;4933115;29;20034;-73
2023/06/15 08:09:47;;;;;;;9.70;4.05;;;22.40;80.40;;;;;;4933196;28;20074;-74
2023/06/15 08:12:12;;;;;;;7.57;4.07;;;22.30;79.90;;;;;;4928119;29;20111;-71
2023/06/15 08:14:38;;;;;;;9.10;3.63;;;22.40;79.80;;;;;;4917717;28;20027;-72
2023/06/15 08:17:05;;;;;;;5.18;3.80;;;22.40;78.80;;;;;;4913871;28;20529;-71
2023/06/15 08:19:30;;;;;;;6.40;3.88;;;22.40;78.90;;;;;;4914138;28;20024;-72
2023/06/15 08:21:56;;;;;;;5.07;3.60;;;22.40;79.90;;;;;;4913872;29;20058;-72
2023/06/15 08:24:22;;;;;;;6.85;3.72;;;22.50;79.20;;;;;;4913919;29;20032;-72
2023/06/15 08:26:48;;;;;;;4.88;3.88;;;22.60;79.00;;;;;;4913798;28;20391;-72
2023/06/15 08:29:15;;;;;;;8.90;3.38;;;22.60;78.20;;;;;;4913634;28;20040;-71
2023/06/15 08:31:40;;;;;;;10.90;4.20;;;22.60;77.20;;;;;;4913980;28;20039;-72
2023/06/15 08:34:07;;;;;;;5.10;3.67;;;22.60;77.20;;;;;;4913777;28;20392;-72
2023/06/15 08:36:33;;;;;;;6.22;4.03;;;22.70;77.10;;;;;;4913580;29;20115;-72
2023/06/15 08:38:58;;;;;;;8.68;3.92;;;22.80;77.50;;;;;;4913966;28;20119;-72
2023/06/15 08:41:26;;;;;;;7.30;3.85;;;22.80;77.30;;;;;;4916609;28;20055;-72
2023/06/15 08:43:53;;;;;;;6.88;3.67;;;22.80;77.30;;;;;;4916871;28;20428;-73
2023/06/15 08:46:22;;;;;;;5.47;3.85;;;22.90;77.10;;;;;;4917518;28;20032;-72
2023/06/15 08:48:51;;;;;;;8.90;3.75;;;22.90;76.90;;;;;;4917123;28;20508;-73
2023/06/15 08:51:17;;;;;;;5.70;3.53;;;23.00;77.50;;;;;;4916605;29;20032;-72
2023/06/15 08:53:44;;;;;;;5.85;3.47;;;23.10;77.90;;;;;;4916908;29;20028;-73
2023/06/15 08:56:12;;;;;;;5.55;3.67;;;23.10;77.00;;;;;;4916682;28;20028;-72
2023/06/15 08:58:49;;;;;;;12.00;3.85;;;23.20;76.60;;;;;;4916824;28;20031;-72
2023/06/15 09:01:18;;;;;;;6.65;3.58;;;23.20;77.00;;;;;;4916833;28;20028;-72
2023/06/15 09:03:44;;;;;;;7.28;3.65;;;23.20;76.90;;;;;;4916521;28;20032;-73
2023/06/15 09:06:10;;;;;;;6.88;3.50;;;23.20;75.20;;;;;;4916501;29;20110;-72
2023/06/15 09:08:35;;;;;;;9.27;4.03;;;23.20;74.60;;;;;;4916379;28;20512;-72
2023/06/15 09:11:09;;;;;;;10.20;4.22;;;23.30;74.60;;;;;;4916561;28;20031;-72
2023/06/15 09:13:35;;;;;;;6.40;3.60;;;23.30;74.80;;;;;;4916666;29;20446;-78
2023/06/15 09:16:01;;;;;;;6.28;3.50;;;23.40;75.10;;;;;;4951180;28;20093;-72
2023/06/15 09:18:27;;;;;;;6.13;3.78;;;23.40;74.60;;;;;;4954539;28;20041;-71
2023/06/15 09:20:59;;;;;;;10.48;3.53;;;23.50;74.30;;;;;;4954525;28;20031;-71
2023/06/15 09:23:24;;;;;;;;;;;23.60;74.60;;;;;;4955198;28;20027;-72
2023/06/15 09:25:52;;;;;;;8.18;3.42;;;23.70;74.70;;;;;;4954861;28;19960;-71
2023/06/15 09:28:22;;;;;;;5.68;3.67;;;23.70;74.30;;;;;;4954360;28;20389;-71
2023/06/15 09:30:54;;;;;;;5.28;3.47;;;23.80;74.40;;;;;;4954710;28;20019;-71
2023/06/15 09:33:20;;;;;;;8.10;3.90;;;23.80;73.80;;;;;;4954528;28;20479;-71
2023/06/15 09:36:02;;;;;;;5.28;3.60;;;23.90;73.30;;;;;;4954189;28;20055;-72
2023/06/15 09:38:29;;;;;;;;;;;23.90;73.30;;;;;;4955006;28;20032;-72
2023/06/15 09:40:55;;;;;;;5.78;3.20;;;24.00;72.80;;;;;;5037274;28;19967;-72
2023/06/15 09:43:21;;;;;;;11.50;3.47;;;24.00;71.40;;;;;;4954264;28;20059;-72
2023/06/15 09:45:53;;;;;;;4.47;3.13;;;24.10;67.90;;;;;;4954008;28;20032;-68
2023/06/15 09:48:19;;;;;;;6.05;3.45;;;24.10;67.40;;;;;;4953834;28;20110;-69
2023/06/15 09:50:52;;;;;;;7.50;3.78;;;24.10;68.40;;;;;;4953847;28;20154;-69
2023/06/15 09:53:18;;;;;;;13.10;3.28;;;24.20;70.00;;;;;;4954316;28;20028;-70
2023/06/15 09:55:46;;;;;;;5.80;3.25;;;24.20;70.40;;;;;;4954212;29;20031;-69
2023/06/15 09:58:12;;;;;;;4.13;3.35;;;24.30;69.50;;;;;;4954005;28;20422;-69
2023/06/15 10:00:38;;;;;;;6.28;3.65;;;24.30;69.80;;;;;;4953896;28;20085;-68
2023/06/15 10:03:08;;;;;;;13.50;3.70;;;24.40;70.50;;;;;;4954002;28;20153;-69
2023/06/15 10:05:40;;;;;;;5.18;3.15;;;24.50;70.20;;;;;;4953929;28;20379;-69
2023/06/15 10:08:08;;;;;;;8.02;3.40;;;24.60;69.40;;;;;;4954038;28;20032;-68
2023/06/15 10:10:39;;;;;;;4.13;3.20;;;24.70;67.50;;;;;;4954386;28;20037;-69
2023/06/15 10:13:10;;;;;;;9.97;3.40;;;24.70;68.10;;;;;;4953733;29;20217;-70
2023/06/15 10:15:36;;;;;;;5.55;2.95;;;24.80;67.50;;;;;;4953818;28;20031;-68
2023/06/15 10:18:05;;;;;;;7.45;2.78;;;24.90;66.60;;;;;;4953762;28;20084;-68
2023/06/15 10:20:33;;;;;;;9.70;4.15;;;24.90;66.50;;;;;;4953768;28;20025;-68
2023/06/15 10:23:04;;;;;;;5.47;3.05;;;25.00;66.90;;;;;;4953683;28;20038;-69
2023/06/15 10:25:31;;;;;;;11.95;3.33;;;25.00;66.30;;;;;;4953513;29;20499;-69
2023/06/15 10:28:09;;;;;;;3.60;3.00;;;25.10;64.50;;;;;;4953308;29;20035;-70
2023/06/15 10:30:40;;;;;;;5.55;3.35;;;25.10;63.50;;;;;;4953684;28;20423;-68
2023/06/15 10:33:21;;;;;;;6.00;3.13;;;25.10;63.40;;;;;;4953371;28;20382;-68
2023/06/15 10:36:28;;;;;;;5.07;3.40;;;25.20;63.30;;;;;;4953596;28;20060;-68
2023/06/15 10:39:18;;;;;;;8.73;3.10;;;25.20;63.90;;;;;;4955959;28;20039;-68
2023/06/15 10:41:45;;;;;;;9.88;3.78;;;25.20;63.40;;;;;;4953399;29;20024;-67
2023/06/15 10:44:14;;;;;;;11.45;3.97;;;25.20;63.50;;;;;;4953441;28;20027;-68
2023/06/15 10:46:40;;;;;;;5.97;3.00;;;25.30;65.00;;;;;;4953471;28;20019;-67
2023/06/15 10:49:10;;;;;;;5.70;3.25;;;25.30;64.70;;;;;;4953432;28;20042;-67
2023/06/15 10:51:39;;;;;;;4.43;3.38;;;25.40;63.20;;;;;;4953221;28;20028;-68
2023/06/15 10:54:22;;;;;;;4.50;2.80;;;25.40;62.90;;;;;;4953130;28;20448;-67
2023/06/15 10:56:55;;;;;;;7.82;4.15;;;25.50;62.80;;;;;;4953234;28;20383;-68
2023/06/15 10:59:44;;;;;;;5.05;3.33;;;25.60;62.50;;;;;;4953104;28;20031;-68
2023/06/15 11:02:27;;;;;;;3.97;2.70;;;25.60;60.10;;;;;;4952237;28;20027;-67
2023/06/15 11:04:59;;;;;;;6.03;3.10;;;25.70;61.80;;;;;;4953413;28;20384;-69
2023/06/15 11:07:28;;;;;;;;;;;25.60;60.00;;;;;;4953511;28;20038;-68
2023/06/15 11:09:57;;;;;;;13.00;3.20;;;25.60;60.50;;;;;;4953346;28;20003;-68
2023/06/15 11:12:40;;;;;;;7.35;2.92;;;25.70;60.80;;;;;;4952934;28;20038;-67
2023/06/15 11:15:09;;;;;;;3.53;2.90;;;25.60;60.40;;;;;;4952956;28;20061;-69
2023/06/15 11:17:59;;;;;;;6.20;2.95;;;25.60;60.40;;;;;;4952893;28;20031;-68
2023/06/15 11:20:44;;;;;;;8.38;3.13;;;25.70;60.40;;;;;;4952888;28;20031;-68
2023/06/15 11:23:16;;;;;;;3.50;3.13;;;25.70;60.00;;;;;;4952877;28;20054;-70
2023/06/15 11:25:44;;;;;;;;;;;25.70;57.50;;;;;;4953179;28;20103;-69
2023/06/15 11:28:11;;;;;;;4.32;3.05;;;25.70;57.50;;;;;;4952483;28;19914;-69
2023/06/15 11:30:40;;;;;;;4.85;2.85;;;25.70;57.80;;;;;;4952501;28;20031;-68
2023/06/15 11:33:11;;;;;;;5.65;3.15;;;25.70;58.40;;;;;;4952778;28;20019;-68
2023/06/15 11:35:37;;;;;;;5.00;3.27;;;25.80;57.00;;;;;;4952690;28;20051;-68
2023/06/15 11:38:07;;;;;;;5.78;3.05;;;25.80;57.60;;;;;;4952622;28;20031;-68
2023/06/15 11:40:33;;;;;;;4.72;3.20;;;25.80;57.60;;;;;;4952748;28;20031;-68
2023/06/15 11:42:59;;;;;;;5.53;3.45;;;25.80;58.20;;;;;;4952503;28;20184;-69
2023/06/15 11:45:25;;;;;;;5.43;3.00;;;25.90;57.90;;;;;;4952681;28;20096;-69
2023/06/15 11:47:51;;;;;;;5.22;3.08;;;25.90;56.70;;;;;;4952381;28;20525;-71
2023/06/15 11:50:19;;;;;;;5.53;3.10;;;26.00;57.30;;;;;;4952526;28;20027;-70
2023/06/15 11:52:46;;;;;;;6.95;2.78;;;26.00;57.90;;;;;;4952064;29;20092;-69
2023/06/15 11:55:15;;;;;;;6.60;2.90;;;26.00;57.60;;;;;;4952071;28;20031;-69
2023/06/15 11:57:44;;;;;;;3.30;2.53;;;26.10;57.00;;;;;;4949143;28;20028;-72
2023/06/15 12:00:12;;;;;;;5.50;3.03;;;26.10;56.40;;;;;;4949737;28;20023;-69
2023/06/15 12:02:40;;;;;;;5.93;3.15;;;26.10;56.40;;;;;;4950636;28;20036;-68
2023/06/15 12:05:05;;;;;;;7.47;3.17;;;26.20;56.30;;;;;;4951872;28;20119;-69
2023/06/15 12:07:34;;;;;;;3.42;2.75;;;26.20;56.50;;;;;;4952185;28;20055;-71
2023/06/15 12:10:00;;;;;;;4.30;2.60;;;26.20;55.70;;;;;;4952023;28;20027;-69
2023/06/15 12:12:33;;;;;;;4.75;2.72;;;26.20;56.50;;;;;;4951759;28;20027;-70
2023/06/15 12:15:06;;;;;;;5.72;2.80;;;26.20;56.80;;;;;;4951978;28;20031;-68
2023/06/15 12:17:33;;;;;;;5.90;2.70;;;26.20;55.20;;;;;;4952074;28;20016;-71
2023/06/15 12:20:00;;;;;;;3.65;2.90;;;26.30;55.40;;;;;;4951773;28;20039;-70
2023/06/15 12:22:36;;;;;;;4.15;3.05;;;26.30;55.60;;;;;;4951979;28;20108;-71
2023/06/15 12:25:03;;;;;;;6.78;3.28;;;26.40;55.70;;;;;;4951703;28;20030;-72
2023/06/15 12:27:31;;;;;;;6.38;3.03;;;26.40;55.40;;;;;;4951527;28;20104;-70
2023/06/15 12:30:10;;;;;;;8.43;3.08;;;26.40;55.00;;;;;;4951971;28;20031;-71
2023/06/15 12:32:42;;;;;;;8.43;3.08;;;26.50;55.40;;;;;;4951925;28;20020;-70
2023/06/15 12:35:23;;;;;;;;;;;26.50;55.40;;;;;;4952091;28;20126;-70
2023/06/15 12:37:49;;;;;;;8.40;3.05;;;26.60;54.90;;;;;;4951523;28;20370;-70
2023/06/15 12:40:19;;;;;;;10.98;2.75;;;26.50;55.60;;;;;;4948784;28;20049;-70
2023/06/15 12:42:45;;;;;;;3.75;2.78;;;26.50;54.90;;;;;;4949127;28;20645;-71
2023/06/15 12:45:11;;;;;;;7.43;2.80;;;26.50;55.70;;;;;;4951457;28;20110;-71
2023/06/15 12:47:36;;;;;;;7.38;2.95;;;26.60;55.50;;;;;;4951696;28;20093;-71
2023/06/15 12:50:02;;;;;;;5.03;2.85;;;26.70;55.20;;;;;;4952061;28;20039;-72
2023/06/15 12:52:28;;;;;;;6.97;3.20;;;26.70;55.40;;;;;;4951866;28;20016;-71